sensor_id;sensor_type;location;lat;lon;timestamp;P1;durP1;ratioP1;P2;durP2;ratioP2
52848;SDS011;38714;53.180;5.812;2023-05-10T00:00:32;4.53;;;3.13;;
52848;SDS011;38714;53.180;5.812;2023-05-10T00:02:57;3.90;;;2.88;;
52848;SDS011;38714;53.180;5.812;2023-05-10T00:05:23;3.40;;;2.55;;
52848;SDS011;38714;53.180;5.812;2023-05-10T00:07:48;3.92;;;2.33;;
52848;SDS011;38714;53.180;5.812;2023-05-10T00:10:14;4.07;;;2.70;;
52848;SDS011;38714;53.180;5.812;2023-05-10T00:12:40;5.15;;;3.30;;
52848;SDS011;38714;53.180;5.812;2023-05-10T00:15:06;6.32;;;3.50;;
52848;SDS011;38714;53.180;5.812;2023-05-10T00:17:32;3.85;;;2.30;;
52848;SDS011;38714;53.180;5.812;2023-05-10T00:19:57;3.00;;;2.20;;
52848;SDS011;38714;53.180;5.812;2023-05-10T00:22:23;2.83;;;1.80;;
52848;SDS011;38714;53.180;5.812;2023-05-10T00:24:48;1.75;;;1.65;;
52848;SDS011;38714;53.180;5.812;2023-05-10T00:27:14;2.00;;;1.75;;
52848;SDS011;38714;53.180;5.812;2023-05-10T00:29:40;1.85;;;1.50;;
52848;SDS011;38714;53.180;5.812;2023-05-10T00:32:05;2.50;;;1.52;;
52848;SDS011;38714;53.180;5.812;2023-05-10T00:34:31;1.40;;;1.17;;
52848;SDS011;38714;53.180;5.812;2023-05-10T00:36:57;2.33;;;1.60;;
52848;SDS011;38714;53.180;5.812;2023-05-10T00:39:22;2.58;;;1.65;;
52848;SDS011;38714;53.180;5.812;2023-05-10T00:41:48;3.15;;;1.90;;
52848;SDS011;38714;53.180;5.812;2023-05-10T00:44:14;2.05;;;1.73;;
52848;SDS011;38714;53.180;5.812;2023-05-10T00:46:39;3.15;;;2.17;;
52848;SDS011;38714;53.180;5.812;2023-05-10T00:49:06;3.28;;;2.00;;
52848;SDS011;38714;53.180;5.812;2023-05-10T00:51:32;4.22;;;2.40;;
52848;SDS011;38714;53.180;5.812;2023-05-10T00:53:58;5.90;;;3.08;;
52848;SDS011;38714;53.180;5.812;2023-05-10T00:56:24;4.10;;;2.50;;
52848;SDS011;38714;53.180;5.812;2023-05-10T00:58:50;7.28;;;3.97;;
52848;SDS011;38714;53.180;5.812;2023-05-10T01:01:16;7.28;;;3.42;;
52848;SDS011;38714;53.180;5.812;2023-05-10T01:03:42;10.23;;;4.40;;
52848;SDS011;38714;53.180;5.812;2023-05-10T01:06:08;6.40;;;3.75;;
52848;SDS011;38714;53.180;5.812;2023-05-10T01:08:35;10.32;;;4.60;;
52848;SDS011;38714;53.180;5.812;2023-05-10T01:11:01;9.15;;;4.72;;
52848;SDS011;38714;53.180;5.812;2023-05-10T01:13:31;11.30;;;5.35;;
52848;SDS011;38714;53.180;5.812;2023-05-10T01:16:00;11.73;;;5.20;;
52848;SDS011;38714;53.180;5.812;2023-05-10T01:18:38;8.40;;;3.75;;
52848;SDS011;38714;53.180;5.812;2023-05-10T01:26:41;11.63;;;6.00;;
52848;SDS011;38714;53.180;5.812;2023-05-10T01:29:32;7.53;;;5.55;;
52848;SDS011;38714;53.180;5.812;2023-05-10T01:42:46;7.47;;;4.80;;
52848;SDS011;38714;53.180;5.812;2023-05-10T01:45:24;8.13;;;4.60;;
52848;SDS011;38714;53.180;5.812;2023-05-10T01:48:08;9.65;;;4.90;;
52848;SDS011;38714;53.180;5.812;2023-05-10T01:50:38;15.05;;;5.80;;
52848;SDS011;38714;53.180;5.812;2023-05-10T01:53:09;11.35;;;6.07;;
52848;SDS011;38714;53.180;5.812;2023-05-10T01:55:41;9.60;;;5.43;;
52848;SDS011;38714;53.180;5.812;2023-05-10T01:58:15;12.30;;;6.72;;
52848;SDS011;38714;53.180;5.812;2023-05-10T02:00:45;13.02;;;6.03;;
52848;SDS011;38714;53.180;5.812;2023-05-10T02:03:12;11.88;;;6.00;;
52848;SDS011;38714;53.180;5.812;2023-05-10T02:05:40;11.10;;;6.25;;
52848;SDS011;38714;53.180;5.812;2023-05-10T02:08:09;12.52;;;6.32;;
52848;SDS011;38714;53.180;5.812;2023-05-10T02:10:36;14.13;;;7.45;;
52848;SDS011;38714;53.180;5.812;2023-05-10T02:13:04;13.55;;;7.47;;
52848;SDS011;38714;53.180;5.812;2023-05-10T02:15:31;15.15;;;7.03;;
52848;SDS011;38714;53.180;5.812;2023-05-10T02:17:58;8.52;;;5.32;;
52848;SDS011;38714;53.180;5.812;2023-05-10T02:20:25;11.88;;;5.05;;
52848;SDS011;38714;53.180;5.812;2023-05-10T02:22:52;12.52;;;6.22;;
52848;SDS011;38714;53.180;5.812;2023-05-10T02:25:21;11.07;;;5.90;;
52848;SDS011;38714;53.180;5.812;2023-05-10T02:27:48;8.63;;;5.80;;
52848;SDS011;38714;53.180;5.812;2023-05-10T02:30:15;9.70;;;4.72;;
52848;SDS011;38714;53.180;5.812;2023-05-10T02:32:42;9.70;;;5.18;;
52848;SDS011;38714;53.180;5.812;2023-05-10T02:35:10;6.05;;;3.63;;
52848;SDS011;38714;53.180;5.812;2023-05-10T02:37:36;4.03;;;2.50;;
52848;SDS011;38714;53.180;5.812;2023-05-10T02:40:04;6.68;;;2.72;;
52848;SDS011;38714;53.180;5.812;2023-05-10T02:42:32;4.00;;;1.98;;
52848;SDS011;38714;53.180;5.812;2023-05-10T02:45:00;2.47;;;1.95;;
52848;SDS011;38714;53.180;5.812;2023-05-10T02:47:28;1.92;;;1.52;;
52848;SDS011;38714;53.180;5.812;2023-05-10T02:49:54;2.15;;;1.33;;
52848;SDS011;38714;53.180;5.812;2023-05-10T02:52:21;1.20;;;1.10;;
52848;SDS011;38714;53.180;5.812;2023-05-10T02:54:54;2.00;;;1.67;;
52848;SDS011;38714;53.180;5.812;2023-05-10T02:57:26;0.75;;;0.75;;
52848;SDS011;38714;53.180;5.812;2023-05-10T02:59:58;1.38;;;1.27;;
52848;SDS011;38714;53.180;5.812;2023-05-10T03:02:25;1.55;;;1.10;;
52848;SDS011;38714;53.180;5.812;2023-05-10T03:04:51;1.25;;;0.98;;
52848;SDS011;38714;53.180;5.812;2023-05-10T03:07:17;1.13;;;0.68;;
52848;SDS011;38714;53.180;5.812;2023-05-10T03:09:46;1.02;;;0.68;;
52848;SDS011;38714;53.180;5.812;2023-05-10T03:12:19;0.98;;;0.70;;
52848;SDS011;38714;53.180;5.812;2023-05-10T03:17:52;0.73;;;0.60;;
52848;SDS011;38714;53.180;5.812;2023-05-10T03:20:43;0.52;;;0.52;;
52848;SDS011;38714;53.180;5.812;2023-05-10T03:23:16;0.88;;;0.68;;
52848;SDS011;38714;53.180;5.812;2023-05-10T03:25:45;0.45;;;0.45;;
52848;SDS011;38714;53.180;5.812;2023-05-10T03:28:13;0.60;;;0.60;;
52848;SDS011;38714;53.180;5.812;2023-05-10T03:30:40;1.15;;;0.80;;
52848;SDS011;38714;53.180;5.812;2023-05-10T03:33:08;0.75;;;0.75;;
52848;SDS011;38714;53.180;5.812;2023-05-10T03:35:33;0.60;;;0.60;;
52848;SDS011;38714;53.180;5.812;2023-05-10T03:37:59;0.88;;;0.85;;
52848;SDS011;38714;53.180;5.812;2023-05-10T03:40:25;0.90;;;0.80;;
52848;SDS011;38714;53.180;5.812;2023-05-10T03:42:53;0.80;;;0.50;;
52848;SDS011;38714;53.180;5.812;2023-05-10T03:45:19;0.73;;;0.70;;
52848;SDS011;38714;53.180;5.812;2023-05-10T03:47:45;1.08;;;0.80;;
52848;SDS011;38714;53.180;5.812;2023-05-10T03:50:11;0.88;;;0.60;;
52848;SDS011;38714;53.180;5.812;2023-05-10T03:52:36;0.57;;;0.43;;
52848;SDS011;38714;53.180;5.812;2023-05-10T03:55:04;0.30;;;0.30;;
52848;SDS011;38714;53.180;5.812;2023-05-10T03:57:30;0.82;;;0.60;;
52848;SDS011;38714;53.180;5.812;2023-05-10T03:59:56;0.85;;;0.63;;
52848;SDS011;38714;53.180;5.812;2023-05-10T04:02:21;0.40;;;0.38;;
52848;SDS011;38714;53.180;5.812;2023-05-10T04:04:47;1.05;;;0.50;;
52848;SDS011;38714;53.180;5.812;2023-05-10T04:07:13;0.65;;;0.45;;
52848;SDS011;38714;53.180;5.812;2023-05-10T04:09:39;1.85;;;0.52;;
52848;SDS011;38714;53.180;5.812;2023-05-10T04:12:04;0.98;;;0.70;;
52848;SDS011;38714;53.180;5.812;2023-05-10T04:14:30;0.47;;;0.47;;
52848;SDS011;38714;53.180;5.812;2023-05-10T04:16:56;0.60;;;0.40;;
52848;SDS011;38714;53.180;5.812;2023-05-10T04:19:21;0.50;;;0.43;;
52848;SDS011;38714;53.180;5.812;2023-05-10T04:21:47;0.68;;;0.50;;
52848;SDS011;38714;53.180;5.812;2023-05-10T04:24:13;0.70;;;0.70;;
52848;SDS011;38714;53.180;5.812;2023-05-10T04:26:38;0.75;;;0.70;;
52848;SDS011;38714;53.180;5.812;2023-05-10T04:29:04;0.43;;;0.43;;
52848;SDS011;38714;53.180;5.812;2023-05-10T04:31:30;0.63;;;0.50;;
52848;SDS011;38714;53.180;5.812;2023-05-10T04:33:55;0.70;;;0.52;;
52848;SDS011;38714;53.180;5.812;2023-05-10T04:36:21;0.60;;;0.35;;
52848;SDS011;38714;53.180;5.812;2023-05-10T04:38:46;0.68;;;0.50;;
52848;SDS011;38714;53.180;5.812;2023-05-10T04:41:12;0.60;;;0.47;;
52848;SDS011;38714;53.180;5.812;2023-05-10T04:43:38;0.55;;;0.50;;
52848;SDS011;38714;53.180;5.812;2023-05-10T04:46:04;1.02;;;0.68;;
52848;SDS011;38714;53.180;5.812;2023-05-10T04:48:30;0.70;;;0.60;;
52848;SDS011;38714;53.180;5.812;2023-05-10T04:50:55;1.05;;;0.77;;
52848;SDS011;38714;53.180;5.812;2023-05-10T04:53:21;2.80;;;1.30;;
52848;SDS011;38714;53.180;5.812;2023-05-10T04:55:47;1.75;;;1.52;;
52848;SDS011;38714;53.180;5.812;2023-05-10T04:58:13;2.40;;;1.48;;
52848;SDS011;38714;53.180;5.812;2023-05-10T05:00:39;1.80;;;1.60;;
52848;SDS011;38714;53.180;5.812;2023-05-10T05:03:04;2.83;;;1.60;;
52848;SDS011;38714;53.180;5.812;2023-05-10T05:05:30;1.65;;;1.35;;
52848;SDS011;38714;53.180;5.812;2023-05-10T05:07:56;3.65;;;2.05;;
52848;SDS011;38714;53.180;5.812;2023-05-10T05:10:22;2.67;;;1.80;;
52848;SDS011;38714;53.180;5.812;2023-05-10T05:12:47;3.25;;;1.92;;
52848;SDS011;38714;53.180;5.812;2023-05-10T05:15:13;6.43;;;2.30;;
52848;SDS011;38714;53.180;5.812;2023-05-10T05:17:40;2.95;;;1.75;;
52848;SDS011;38714;53.180;5.812;2023-05-10T05:20:05;1.65;;;1.15;;
52848;SDS011;38714;53.180;5.812;2023-05-10T05:22:32;2.88;;;1.63;;
52848;SDS011;38714;53.180;5.812;2023-05-10T05:24:57;2.63;;;1.60;;
52848;SDS011;38714;53.180;5.812;2023-05-10T05:27:23;3.13;;;1.70;;
52848;SDS011;38714;53.180;5.812;2023-05-10T05:29:54;2.97;;;2.08;;
52848;SDS011;38714;53.180;5.812;2023-05-10T05:32:20;3.08;;;1.88;;
52848;SDS011;38714;53.180;5.812;2023-05-10T05:34:46;2.10;;;1.65;;
52848;SDS011;38714;53.180;5.812;2023-05-10T05:37:13;2.95;;;1.77;;
52848;SDS011;38714;53.180;5.812;2023-05-10T05:39:43;1.80;;;1.13;;
52848;SDS011;38714;53.180;5.812;2023-05-10T05:42:09;3.13;;;1.75;;
52848;SDS011;38714;53.180;5.812;2023-05-10T05:44:35;2.47;;;1.65;;
52848;SDS011;38714;53.180;5.812;2023-05-10T05:47:01;2.03;;;1.10;;
52848;SDS011;38714;53.180;5.812;2023-05-10T05:49:26;2.15;;;1.23;;
52848;SDS011;38714;53.180;5.812;2023-05-10T05:51:52;1.92;;;1.10;;
52848;SDS011;38714;53.180;5.812;2023-05-10T05:54:17;1.90;;;0.95;;
52848;SDS011;38714;53.180;5.812;2023-05-10T05:56:43;1.52;;;0.88;;
52848;SDS011;38714;53.180;5.812;2023-05-10T05:59:09;1.48;;;0.82;;
52848;SDS011;38714;53.180;5.812;2023-05-10T06:01:35;1.05;;;0.88;;
52848;SDS011;38714;53.180;5.812;2023-05-10T06:04:01;0.88;;;0.85;;
52848;SDS011;38714;53.180;5.812;2023-05-10T06:06:26;0.63;;;0.60;;
52848;SDS011;38714;53.180;5.812;2023-05-10T06:08:52;1.20;;;0.70;;
52848;SDS011;38714;53.180;5.812;2023-05-10T06:11:18;0.82;;;0.50;;
52848;SDS011;38714;53.180;5.812;2023-05-10T06:13:43;0.85;;;0.85;;
52848;SDS011;38714;53.180;5.812;2023-05-10T06:16:09;1.90;;;0.95;;
52848;SDS011;38714;53.180;5.812;2023-05-10T06:18:35;1.85;;;1.40;;
52848;SDS011;38714;53.180;5.812;2023-05-10T06:21:01;2.75;;;1.02;;
52848;SDS011;38714;53.180;5.812;2023-05-10T06:23:26;1.60;;;1.20;;
52848;SDS011;38714;53.180;5.812;2023-05-10T06:25:52;3.97;;;1.83;;
52848;SDS011;38714;53.180;5.812;2023-05-10T06:28:17;1.52;;;1.05;;
52848;SDS011;38714;53.180;5.812;2023-05-10T06:30:43;1.33;;;0.93;;
52848;SDS011;38714;53.180;5.812;2023-05-10T06:33:09;3.13;;;1.23;;
52848;SDS011;38714;53.180;5.812;2023-05-10T06:35:34;4.25;;;1.85;;
52848;SDS011;38714;53.180;5.812;2023-05-10T06:38:01;2.35;;;1.27;;
52848;SDS011;38714;53.180;5.812;2023-05-10T06:40:27;2.03;;;1.17;;
52848;SDS011;38714;53.180;5.812;2023-05-10T06:42:53;1.85;;;0.93;;
52848;SDS011;38714;53.180;5.812;2023-05-10T06:45:18;2.70;;;1.10;;
52848;SDS011;38714;53.180;5.812;2023-05-10T06:47:44;3.22;;;1.42;;
52848;SDS011;38714;53.180;5.812;2023-05-10T06:50:10;1.98;;;1.08;;
52848;SDS011;38714;53.180;5.812;2023-05-10T06:52:36;2.60;;;1.25;;
52848;SDS011;38714;53.180;5.812;2023-05-10T06:55:05;2.85;;;1.95;;
52848;SDS011;38714;53.180;5.812;2023-05-10T06:57:31;3.50;;;1.33;;
52848;SDS011;38714;53.180;5.812;2023-05-10T07:00:00;3.90;;;1.65;;
52848;SDS011;38714;53.180;5.812;2023-05-10T07:02:28;4.18;;;1.92;;
52848;SDS011;38714;53.180;5.812;2023-05-10T07:04:54;3.15;;;1.58;;
52848;SDS011;38714;53.180;5.812;2023-05-10T07:07:20;2.50;;;1.42;;
52848;SDS011;38714;53.180;5.812;2023-05-10T07:09:46;3.85;;;1.60;;
52848;SDS011;38714;53.180;5.812;2023-05-10T07:12:11;2.78;;;1.88;;
52848;SDS011;38714;53.180;5.812;2023-05-10T07:14:37;3.63;;;2.05;;
52848;SDS011;38714;53.180;5.812;2023-05-10T07:17:03;2.75;;;1.27;;
52848;SDS011;38714;53.180;5.812;2023-05-10T07:19:28;3.78;;;1.30;;
52848;SDS011;38714;53.180;5.812;2023-05-10T07:21:54;2.35;;;1.65;;
52848;SDS011;38714;53.180;5.812;2023-05-10T07:24:20;3.30;;;1.90;;
52848;SDS011;38714;53.180;5.812;2023-05-10T07:26:46;3.35;;;1.38;;
52848;SDS011;38714;53.180;5.812;2023-05-10T07:29:11;2.40;;;1.85;;
52848;SDS011;38714;53.180;5.812;2023-05-10T07:31:37;2.25;;;1.50;;
52848;SDS011;38714;53.180;5.812;2023-05-10T07:34:03;2.65;;;1.70;;
52848;SDS011;38714;53.180;5.812;2023-05-10T07:36:28;5.20;;;1.90;;
52848;SDS011;38714;53.180;5.812;2023-05-10T07:38:54;2.65;;;1.60;;
52848;SDS011;38714;53.180;5.812;2023-05-10T07:41:19;2.88;;;2.15;;
52848;SDS011;38714;53.180;5.812;2023-05-10T07:43:46;4.05;;;1.77;;
52848;SDS011;38714;53.180;5.812;2023-05-10T07:46:11;3.78;;;2.20;;
52848;SDS011;38714;53.180;5.812;2023-05-10T07:48:37;2.75;;;1.65;;
52848;SDS011;38714;53.180;5.812;2023-05-10T07:51:02;5.80;;;1.98;;
52848;SDS011;38714;53.180;5.812;2023-05-10T07:53:28;5.10;;;2.15;;
52848;SDS011;38714;53.180;5.812;2023-05-10T07:55:54;4.07;;;1.75;;
52848;SDS011;38714;53.180;5.812;2023-05-10T07:58:23;6.38;;;2.45;;
52848;SDS011;38714;53.180;5.812;2023-05-10T08:00:49;5.68;;;1.92;;
52848;SDS011;38714;53.180;5.812;2023-05-10T08:03:14;8.07;;;2.10;;
52848;SDS011;38714;53.180;5.812;2023-05-10T08:05:40;4.05;;;2.22;;
52848;SDS011;38714;53.180;5.812;2023-05-10T08:08:06;3.92;;;1.73;;
52848;SDS011;38714;53.180;5.812;2023-05-10T08:10:31;5.95;;;2.28;;
52848;SDS011;38714;53.180;5.812;2023-05-10T08:12:57;4.72;;;1.60;;
52848;SDS011;38714;53.180;5.812;2023-05-10T08:15:23;2.95;;;1.45;;
52848;SDS011;38714;53.180;5.812;2023-05-10T08:17:50;4.25;;;2.25;;
52848;SDS011;38714;53.180;5.812;2023-05-10T08:20:16;5.28;;;2.25;;
52848;SDS011;38714;53.180;5.812;2023-05-10T08:22:44;5.03;;;2.70;;
52848;SDS011;38714;53.180;5.812;2023-05-10T08:25:10;4.30;;;2.20;;
52848;SDS011;38714;53.180;5.812;2023-05-10T08:27:35;4.97;;;2.22;;
52848;SDS011;38714;53.180;5.812;2023-05-10T08:30:01;7.38;;;2.65;;
52848;SDS011;38714;53.180;5.812;2023-05-10T08:32:26;5.25;;;2.28;;
52848;SDS011;38714;53.180;5.812;2023-05-10T08:34:52;2.83;;;1.67;;
52848;SDS011;38714;53.180;5.812;2023-05-10T08:37:18;2.75;;;1.63;;
52848;SDS011;38714;53.180;5.812;2023-05-10T08:39:43;4.78;;;2.00;;
52848;SDS011;38714;53.180;5.812;2023-05-10T08:42:10;8.98;;;2.95;;
52848;SDS011;38714;53.180;5.812;2023-05-10T08:44:37;6.22;;;2.40;;
52848;SDS011;38714;53.180;5.812;2023-05-10T08:47:04;4.47;;;2.42;;
52848;SDS011;38714;53.180;5.812;2023-05-10T08:49:31;3.80;;;2.22;;
52848;SDS011;38714;53.180;5.812;2023-05-10T08:51:58;7.55;;;2.70;;
52848;SDS011;38714;53.180;5.812;2023-05-10T08:54:28;4.72;;;2.28;;
52848;SDS011;38714;53.180;5.812;2023-05-10T08:56:53;7.60;;;2.95;;
52848;SDS011;38714;53.180;5.812;2023-05-10T08:59:19;4.72;;;2.97;;
52848;SDS011;38714;53.180;5.812;2023-05-10T09:01:44;4.90;;;3.20;;
52848;SDS011;38714;53.180;5.812;2023-05-10T09:04:14;5.35;;;3.20;;
52848;SDS011;38714;53.180;5.812;2023-05-10T09:06:39;6.35;;;2.90;;
52848;SDS011;38714;53.180;5.812;2023-05-10T09:09:06;5.75;;;2.60;;
52848;SDS011;38714;53.180;5.812;2023-05-10T09:11:32;9.13;;;3.30;;
52848;SDS011;38714;53.180;5.812;2023-05-10T09:13:57;6.25;;;2.88;;
52848;SDS011;38714;53.180;5.812;2023-05-10T09:16:23;5.75;;;2.75;;
52848;SDS011;38714;53.180;5.812;2023-05-10T09:18:49;5.40;;;2.78;;
52848;SDS011;38714;53.180;5.812;2023-05-10T09:21:14;4.85;;;2.63;;
52848;SDS011;38714;53.180;5.812;2023-05-10T09:23:44;6.88;;;2.88;;
52848;SDS011;38714;53.180;5.812;2023-05-10T09:26:11;6.35;;;2.55;;
52848;SDS011;38714;53.180;5.812;2023-05-10T09:31:45;6.43;;;2.65;;
52848;SDS011;38714;53.180;5.812;2023-05-10T09:34:15;6.18;;;2.55;;
52848;SDS011;38714;53.180;5.812;2023-05-10T09:36:57;5.57;;;2.13;;
52848;SDS011;38714;53.180;5.812;2023-05-10T09:39:36;4.97;;;2.30;;
52848;SDS011;38714;53.180;5.812;2023-05-10T09:42:03;6.22;;;2.78;;
52848;SDS011;38714;53.180;5.812;2023-05-10T09:44:31;4.22;;;2.17;;
52848;SDS011;38714;53.180;5.812;2023-05-10T09:46:57;5.28;;;3.10;;
52848;SDS011;38714;53.180;5.812;2023-05-10T09:49:23;4.65;;;2.70;;
52848;SDS011;38714;53.180;5.812;2023-05-10T09:52:05;6.32;;;2.35;;
52848;SDS011;38714;53.180;5.812;2023-05-10T09:54:32;5.18;;;3.90;;
52848;SDS011;38714;53.180;5.812;2023-05-10T09:56:59;6.68;;;2.70;;
52848;SDS011;38714;53.180;5.812;2023-05-10T09:59:26;5.30;;;2.58;;
52848;SDS011;38714;53.180;5.812;2023-05-10T10:01:59;9.50;;;2.75;;
52848;SDS011;38714;53.180;5.812;2023-05-10T10:04:25;4.25;;;2.47;;
52848;SDS011;38714;53.180;5.812;2023-05-10T10:06:58;5.78;;;3.03;;
52848;SDS011;38714;53.180;5.812;2023-05-10T10:09:25;8.25;;;2.85;;
52848;SDS011;38714;53.180;5.812;2023-05-10T10:11:51;5.53;;;2.83;;
52848;SDS011;38714;53.180;5.812;2023-05-10T10:14:18;5.13;;;2.80;;
52848;SDS011;38714;53.180;5.812;2023-05-10T10:16:45;5.30;;;3.05;;
52848;SDS011;38714;53.180;5.812;2023-05-10T10:19:11;6.13;;;3.05;;
52848;SDS011;38714;53.180;5.812;2023-05-10T10:21:37;8.98;;;3.10;;
52848;SDS011;38714;53.180;5.812;2023-05-10T10:24:03;9.55;;;3.03;;
52848;SDS011;38714;53.180;5.812;2023-05-10T10:26:30;6.07;;;3.47;;
52848;SDS011;38714;53.180;5.812;2023-05-10T10:31:40;6.97;;;2.92;;
52848;SDS011;38714;53.180;5.812;2023-05-10T10:34:17;6.65;;;2.92;;
52848;SDS011;38714;53.180;5.812;2023-05-10T10:36:51;8.68;;;3.08;;
52848;SDS011;38714;53.180;5.812;2023-05-10T10:39:17;5.55;;;2.83;;
52848;SDS011;38714;53.180;5.812;2023-05-10T10:41:51;6.97;;;2.63;;
52848;SDS011;38714;53.180;5.812;2023-05-10T10:52:41;15.18;;;2.83;;
52848;SDS011;38714;53.180;5.812;2023-05-10T10:55:13;7.15;;;3.90;;
52848;SDS011;38714;53.180;5.812;2023-05-10T10:57:49;6.25;;;3.58;;
52848;SDS011;38714;53.180;5.812;2023-05-10T11:00:31;6.68;;;3.33;;
52848;SDS011;38714;53.180;5.812;2023-05-10T11:03:05;4.70;;;3.05;;
52848;SDS011;38714;53.180;5.812;2023-05-10T11:05:41;4.72;;;2.78;;
52848;SDS011;38714;53.180;5.812;2023-05-10T11:13:32;7.78;;;3.10;;
52848;SDS011;38714;53.180;5.812;2023-05-10T11:18:40;5.63;;;3.38;;
52848;SDS011;38714;53.180;5.812;2023-05-10T11:21:16;7.45;;;3.83;;
52848;SDS011;38714;53.180;5.812;2023-05-10T11:23:52;7.93;;;4.03;;
52848;SDS011;38714;53.180;5.812;2023-05-10T11:26:21;7.22;;;2.95;;
52848;SDS011;38714;53.180;5.812;2023-05-10T11:28:55;6.40;;;3.17;;
52848;SDS011;38714;53.180;5.812;2023-05-10T11:31:20;5.97;;;2.60;;
52848;SDS011;38714;53.180;5.812;2023-05-10T11:33:50;6.40;;;2.75;;
52848;SDS011;38714;53.180;5.812;2023-05-10T11:36:18;7.95;;;3.00;;
52848;SDS011;38714;53.180;5.812;2023-05-10T11:38:44;6.45;;;2.95;;
52848;SDS011;38714;53.180;5.812;2023-05-10T11:41:11;4.03;;;2.75;;
52848;SDS011;38714;53.180;5.812;2023-05-10T11:43:41;4.80;;;2.40;;
52848;SDS011;38714;53.180;5.812;2023-05-10T11:46:11;6.10;;;2.95;;
52848;SDS011;38714;53.180;5.812;2023-05-10T11:48:40;5.53;;;3.30;;
52848;SDS011;38714;53.180;5.812;2023-05-10T11:51:07;4.93;;;2.67;;
52848;SDS011;38714;53.180;5.812;2023-05-10T11:53:33;7.60;;;3.17;;
52848;SDS011;38714;53.180;5.812;2023-05-10T11:56:06;6.22;;;3.08;;
52848;SDS011;38714;53.180;5.812;2023-05-10T11:58:35;5.47;;;2.22;;
52848;SDS011;38714;53.180;5.812;2023-05-10T12:01:02;6.57;;;3.28;;
52848;SDS011;38714;53.180;5.812;2023-05-10T12:03:29;6.47;;;3.60;;
52848;SDS011;38714;53.180;5.812;2023-05-10T12:05:55;8.07;;;3.47;;
52848;SDS011;38714;53.180;5.812;2023-05-10T12:08:22;7.32;;;2.88;;
52848;SDS011;38714;53.180;5.812;2023-05-10T12:10:49;6.88;;;3.15;;
52848;SDS011;38714;53.180;5.812;2023-05-10T12:13:16;8.70;;;3.65;;
52848;SDS011;38714;53.180;5.812;2023-05-10T12:15:42;8.32;;;3.67;;
52848;SDS011;38714;53.180;5.812;2023-05-10T12:18:09;7.63;;;3.83;;
52848;SDS011;38714;53.180;5.812;2023-05-10T12:20:35;8.13;;;3.50;;
52848;SDS011;38714;53.180;5.812;2023-05-10T12:23:01;8.85;;;3.55;;
52848;SDS011;38714;53.180;5.812;2023-05-10T12:25:32;4.82;;;2.65;;
52848;SDS011;38714;53.180;5.812;2023-05-10T12:27:59;8.45;;;3.55;;
52848;SDS011;38714;53.180;5.812;2023-05-10T12:30:28;6.65;;;3.38;;
52848;SDS011;38714;53.180;5.812;2023-05-10T12:33:07;8.27;;;2.85;;
52848;SDS011;38714;53.180;5.812;2023-05-10T12:38:29;6.93;;;4.07;;
52848;SDS011;38714;53.180;5.812;2023-05-10T12:40:59;8.10;;;3.90;;
52848;SDS011;38714;53.180;5.812;2023-05-10T12:43:26;7.82;;;3.63;;
52848;SDS011;38714;53.180;5.812;2023-05-10T12:45:52;5.95;;;2.97;;
52848;SDS011;38714;53.180;5.812;2023-05-10T12:48:18;6.30;;;3.15;;
52848;SDS011;38714;53.180;5.812;2023-05-10T12:50:43;6.07;;;2.92;;
52848;SDS011;38714;53.180;5.812;2023-05-10T12:53:09;7.05;;;3.92;;
52848;SDS011;38714;53.180;5.812;2023-05-10T12:55:35;8.07;;;3.58;;
52848;SDS011;38714;53.180;5.812;2023-05-10T12:58:00;6.45;;;3.22;;
52848;SDS011;38714;53.180;5.812;2023-05-10T13:00:26;8.18;;;3.67;;
52848;SDS011;38714;53.180;5.812;2023-05-10T13:02:51;11.63;;;3.38;;
52848;SDS011;38714;53.180;5.812;2023-05-10T13:05:18;7.55;;;3.58;;
52848;SDS011;38714;53.180;5.812;2023-05-10T13:07:43;7.75;;;3.60;;
52848;SDS011;38714;53.180;5.812;2023-05-10T13:10:09;6.72;;;2.90;;
52848;SDS011;38714;53.180;5.812;2023-05-10T13:12:35;5.15;;;2.78;;
52848;SDS011;38714;53.180;5.812;2023-05-10T13:15:01;4.40;;;2.55;;
52848;SDS011;38714;53.180;5.812;2023-05-10T13:17:28;5.28;;;2.38;;
52848;SDS011;38714;53.180;5.812;2023-05-10T13:19:54;5.85;;;2.60;;
52848;SDS011;38714;53.180;5.812;2023-05-10T13:22:19;5.93;;;2.75;;
52848;SDS011;38714;53.180;5.812;2023-05-10T13:24:45;6.78;;;3.03;;
52848;SDS011;38714;53.180;5.812;2023-05-10T13:27:11;4.85;;;2.42;;
52848;SDS011;38714;53.180;5.812;2023-05-10T13:29:36;7.53;;;3.85;;
52848;SDS011;38714;53.180;5.812;2023-05-10T13:32:02;6.25;;;2.88;;
52848;SDS011;38714;53.180;5.812;2023-05-10T13:34:28;6.20;;;3.55;;
52848;SDS011;38714;53.180;5.812;2023-05-10T13:36:53;5.93;;;3.42;;
52848;SDS011;38714;53.180;5.812;2023-05-10T13:39:20;4.07;;;2.67;;
52848;SDS011;38714;53.180;5.812;2023-05-10T13:41:46;2.78;;;1.73;;
52848;SDS011;38714;53.180;5.812;2023-05-10T13:44:12;4.65;;;2.55;;
52848;SDS011;38714;53.180;5.812;2023-05-10T13:46:39;5.45;;;2.25;;
52848;SDS011;38714;53.180;5.812;2023-05-10T13:49:08;5.55;;;3.00;;
52848;SDS011;38714;53.180;5.812;2023-05-10T13:51:34;6.00;;;2.95;;
52848;SDS011;38714;53.180;5.812;2023-05-10T13:54:00;5.63;;;2.78;;
52848;SDS011;38714;53.180;5.812;2023-05-10T13:56:29;4.25;;;2.88;;
52848;SDS011;38714;53.180;5.812;2023-05-10T13:58:56;6.60;;;2.85;;
52848;SDS011;38714;53.180;5.812;2023-05-10T14:01:22;4.90;;;2.92;;
52848;SDS011;38714;53.180;5.812;2023-05-10T14:03:48;5.20;;;2.97;;
52848;SDS011;38714;53.180;5.812;2023-05-10T14:06:13;5.30;;;3.22;;
52848;SDS011;38714;53.180;5.812;2023-05-10T14:08:39;5.55;;;2.92;;
52848;SDS011;38714;53.180;5.812;2023-05-10T14:11:05;4.78;;;2.50;;
52848;SDS011;38714;53.180;5.812;2023-05-10T14:13:30;3.42;;;2.08;;
52848;SDS011;38714;53.180;5.812;2023-05-10T14:15:56;5.22;;;2.97;;
52848;SDS011;38714;53.180;5.812;2023-05-10T14:18:22;3.70;;;2.28;;
52848;SDS011;38714;53.180;5.812;2023-05-10T14:20:47;2.33;;;1.85;;
52848;SDS011;38714;53.180;5.812;2023-05-10T14:23:13;5.05;;;2.63;;
52848;SDS011;38714;53.180;5.812;2023-05-10T14:25:39;4.32;;;2.70;;
52848;SDS011;38714;53.180;5.812;2023-05-10T14:28:05;4.30;;;2.47;;
52848;SDS011;38714;53.180;5.812;2023-05-10T14:30:31;4.63;;;2.65;;
52848;SDS011;38714;53.180;5.812;2023-05-10T14:32:59;4.32;;;2.50;;
52848;SDS011;38714;53.180;5.812;2023-05-10T14:35:26;4.82;;;2.80;;
52848;SDS011;38714;53.180;5.812;2023-05-10T14:37:52;3.97;;;2.65;;
52848;SDS011;38714;53.180;5.812;2023-05-10T14:40:18;4.18;;;2.40;;
52848;SDS011;38714;53.180;5.812;2023-05-10T14:42:43;4.00;;;2.63;;
52848;SDS011;38714;53.180;5.812;2023-05-10T14:45:09;4.72;;;2.83;;
52848;SDS011;38714;53.180;5.812;2023-05-10T14:47:36;4.53;;;2.90;;
52848;SDS011;38714;53.180;5.812;2023-05-10T14:50:01;3.53;;;2.35;;
52848;SDS011;38714;53.180;5.812;2023-05-10T14:52:27;4.95;;;2.92;;
52848;SDS011;38714;53.180;5.812;2023-05-10T14:54:52;5.38;;;2.42;;
52848;SDS011;38714;53.180;5.812;2023-05-10T14:57:18;4.50;;;2.70;;
52848;SDS011;38714;53.180;5.812;2023-05-10T14:59:44;4.35;;;3.03;;
52848;SDS011;38714;53.180;5.812;2023-05-10T15:02:09;4.03;;;3.30;;
52848;SDS011;38714;53.180;5.812;2023-05-10T15:04:35;4.75;;;2.72;;
52848;SDS011;38714;53.180;5.812;2023-05-10T15:07:01;5.38;;;3.30;;
52848;SDS011;38714;53.180;5.812;2023-05-10T15:09:27;5.85;;;3.17;;
52848;SDS011;38714;53.180;5.812;2023-05-10T15:11:52;6.63;;;3.00;;
52848;SDS011;38714;53.180;5.812;2023-05-10T15:14:18;5.25;;;2.97;;
52848;SDS011;38714;53.180;5.812;2023-05-10T15:16:44;7.00;;;3.00;;
52848;SDS011;38714;53.180;5.812;2023-05-10T15:19:09;5.85;;;3.03;;
52848;SDS011;38714;53.180;5.812;2023-05-10T15:21:35;5.82;;;2.85;;
52848;SDS011;38714;53.180;5.812;2023-05-10T15:24:06;7.78;;;3.17;;
52848;SDS011;38714;53.180;5.812;2023-05-10T15:26:33;4.90;;;2.78;;
52848;SDS011;38714;53.180;5.812;2023-05-10T15:28:58;6.82;;;3.28;;
52848;SDS011;38714;53.180;5.812;2023-05-10T15:31:24;5.57;;;3.10;;